Nearby METAR Reports

 

LEVT - Vitoria, Spain
Distance from station: O 10km
Actualización: 18/02/2019 19:00
Despejado
Despejado
 Viento del OSO
Viento: OSO 6 km/h
Temperatura: 10°C
Rocío: 3°C
Humedad: 62%
Barómetro: 1018 hPa
Resumen: Despejado
Visibility: greater than 10 km
2019/02/18 18:00 LEVT 181800Z 25003KT 220V280 CAVOK 10/03 Q1018
LELO - Logrono/Agoncill, Spain
Distance from station: SSE 51km
Actualización: 18/02/2019 19:00
Despejado
Despejado
 Viento del NE
Viento: NE 15 km/h
Temperatura: 11°C
Rocío: 4°C
Humedad: 62%
Barómetro: 1018 hPa
Resumen: Despejado
Visibility: greater than 10 km
2019/02/18 18:00 LELO 181800Z 05008KT 020V080 CAVOK 11/04 Q1018
LEBB - Bilbao/Sondica, Spain
Distance from station: NNO 54km
Actualización: 18/02/2019 19:00
Muy nuboso
Muy nuboso
 Viento del NO
Viento: NO 11 km/h
Temperatura: 12°C
Rocío: 10°C
Humedad: 88%
Barómetro: 1019 hPa
Clouds: Muy nuboso
Visibility: 10 km
Cloud details: Parcialmente nuboso 427 m
Muy nuboso 762 m
2019/02/18 18:00 LEBB 181800Z 32006KT 9999 SCT014 BKN025 12/10 Q1019 NOSIG
 
LEPP - Pamplona/Noain, Spain
Distance from station: E 78km
Actualización: 18/02/2019 19:00
Despejado
Despejado
 Viento del OSO
Viento: OSO 7 km/h
Temperatura: 11°C
Rocío: 1°C
Humedad: 50%
Barómetro: 1018 hPa
Resumen: Despejado
Visibility: greater than 10 km
2019/02/18 18:00 LEPP 181800Z 25004KT 190V290 CAVOK 11/01 Q1018
LESO - San Sebastian/Fu, Spain
Distance from station: NE 85km
Actualización: 18/02/2019 19:00
Few Clouds
Few Clouds
 Viento del varies
Viento: varies 2 km/h
Temperatura: 12°C
Rocío: 10°C
Humedad: 88%
Barómetro: 1019 hPa
Clouds: Few Clouds
Visibility: 10 km
Cloud details: Few Clouds 610 m
2019/02/18 18:00 LESO 181800Z VRB01KT 9999 FEW020 12/10 Q1019
LEBG - Burgos/Villafria, Spain
Distance from station: SO 100km
Actualización: 18/02/2019 19:00
Despejado
Despejado
 Viento del NE
Viento: NE 11 km/h
Temperatura: 7°C
Wind Chill: 5°C
Rocío: 4°C
Humedad: 81%
Barómetro: 1017 hPa
Resumen: Despejado
Visibility: greater than 10 km
2019/02/18 18:00 LEBG 181800Z 05006KT 020V080 CAVOK 07/04 Q1017
 
LFBZ - Biarritz/Anglet, France
Distance from station: NE 111km
Actualización: 18/02/2019 19:00
Parcialmente nuboso
Parcialmente nuboso
 Viento del NNO
Viento: NNO 7 km/h
Temperatura: 11°C
Rocío: 10°C
Humedad: 94%
Barómetro: 1018 hPa
Clouds: Parcialmente nuboso
Visibility: 9 km
2019/02/18 18:00 LFBZ 181800Z AUTO 34004KT 310V020 9000 NSC 11/10 Q1018 BECMG BKN005
LEXJ - Santander/Paraya, Spain
Distance from station: ONO 117km
Actualización: 18/02/2019 19:00
Lluvia débil, Muy nuboso
Lluvia débil, Muy nuboso
 Viento del NNO
Viento: NNO 9 km/h
Temperatura: 12°C
Rocío: 10°C
Humedad: 88%
Barómetro: 1020 hPa
Resumen: Lluvia débil
Clouds: Muy nuboso
Visibility: 7 km
Cloud details: Parcialmente nuboso 396 m
Muy nuboso 610 m
2019/02/18 18:00 LEXJ 181800Z 33005KT 270V010 7000 -RA SCT013 BKN020 12/10 Q1020